createdAt,value
2019-06-08T00:02:08.746Z,64.10
2019-06-08T00:05:14.870Z,63.80
2019-06-08T00:08:19.433Z,63.30
2019-06-08T00:11:24.016Z,63.10
2019-06-08T00:14:28.863Z,63.10
2019-06-08T00:17:38.453Z,62.90
2019-06-08T00:20:42.602Z,62.30
2019-06-08T00:23:48.271Z,62.10
2019-06-08T00:27:04.460Z,62.50
2019-06-08T00:30:09.331Z,62.80
2019-06-08T00:33:14.356Z,62.80
2019-06-08T00:36:18.934Z,63.00
2019-06-08T00:39:27.066Z,63.20
2019-06-08T00:42:31.608Z,63.40
2019-06-08T00:45:36.459Z,63.70
2019-06-08T00:48:41.072Z,63.70
2019-06-08T00:51:45.653Z,63.90
2019-06-08T00:54:50.173Z,64.00
2019-06-08T00:57:54.737Z,64.00
2019-06-08T01:00:59.398Z,64.30
2019-06-08T01:04:04.022Z,64.40
2019-06-08T01:07:08.543Z,64.50
2019-06-08T01:10:13.500Z,65.10
2019-06-08T01:13:18.818Z,64.80
2019-06-08T01:16:24.942Z,64.80
2019-06-08T01:19:29.798Z,64.90
2019-06-08T01:22:34.410Z,64.90
2019-06-08T01:25:39.015Z,65.10
2019-06-08T01:28:43.619Z,65.10
2019-06-08T01:31:48.141Z,64.70
2019-06-08T01:34:52.753Z,64.40
2019-06-08T01:37:57.372Z,63.70
2019-06-08T01:41:01.924Z,62.90
2019-06-08T01:44:06.479Z,62.90
2019-06-08T01:47:11.126Z,62.70
2019-06-08T01:50:15.781Z,62.40
2019-06-08T01:53:26.862Z,62.50
2019-06-08T01:56:31.497Z,62.20
2019-06-08T01:59:36.067Z,62.30
2019-06-08T02:02:40.766Z,62.20
2019-06-08T02:05:45.264Z,62.30
2019-06-08T02:08:49.852Z,62.40
2019-06-08T02:11:54.401Z,62.40
2019-06-08T02:14:59.090Z,62.30
2019-06-08T02:18:03.652Z,62.20
2019-06-08T02:21:08.369Z,62.60
2019-06-08T02:24:12.942Z,62.60
2019-06-08T02:27:17.595Z,62.60
2019-06-08T02:30:22.424Z,62.80
2019-06-08T02:33:28.293Z,62.70
2019-06-08T02:36:33.822Z,62.70
2019-06-08T02:39:39.967Z,62.70
2019-06-08T02:42:44.597Z,62.80
2019-06-08T02:45:49.183Z,62.80
2019-06-08T02:49:03.281Z,62.90
2019-06-08T02:52:01.319Z,63.00
2019-06-08T02:55:06.329Z,63.00
2019-06-08T02:58:11.435Z,63.00
2019-06-08T03:01:17.456Z,63.10
2019-06-08T03:04:24.201Z,62.90
2019-06-08T03:07:32.281Z,63.10
2019-06-08T03:10:39.242Z,62.90
2019-06-08T03:13:47.283Z,63.10
2019-06-08T03:16:51.967Z,63.20
2019-06-08T03:19:56.548Z,63.10
2019-06-08T03:23:01.102Z,63.30
2019-06-08T03:26:06.551Z,63.30
2019-06-08T03:29:11.268Z,63.50
2019-06-08T03:32:16.129Z,63.60
2019-06-08T03:35:20.710Z,63.50
2019-06-08T03:38:25.328Z,63.70
2019-06-08T03:41:29.917Z,63.60
2019-06-08T03:44:36.090Z,63.50
2019-06-08T03:47:41.841Z,63.40
2019-06-08T03:50:47.560Z,63.30
2019-06-08T03:53:52.144Z,63.30
2019-06-08T03:56:56.735Z,63.50
2019-06-08T04:00:01.264Z,63.70
2019-06-08T04:03:06.418Z,64.00
2019-06-08T04:06:11.034Z,64.50
2019-06-08T04:09:15.628Z,64.70
2019-06-08T04:12:20.461Z,64.40
2019-06-08T04:15:25.034Z,65.60
2019-06-08T04:18:29.632Z,66.70
2019-06-08T04:21:34.215Z,65.80
2019-06-08T04:24:40.136Z,64.50
2019-06-08T04:27:46.976Z,64.40
2019-06-08T04:30:54.491Z,63.60
2019-06-08T04:33:59.082Z,62.50
2019-06-08T04:37:03.632Z,62.50
2019-06-08T04:40:08.498Z,62.60
2019-06-08T04:43:13.151Z,62.70
2019-06-08T04:46:17.763Z,63.80
2019-06-08T04:49:25.275Z,65.20
2019-06-08T04:52:29.924Z,64.20
2019-06-08T04:55:34.507Z,62.70
2019-06-08T04:58:39.848Z,62.90
2019-06-08T05:01:46.940Z,63.40
2019-06-08T05:04:51.744Z,61.50
2019-06-08T05:07:56.375Z,61.40
2019-06-08T05:11:00.965Z,62.10
2019-06-08T05:14:05.787Z,60.50
2019-06-08T05:17:10.380Z,58.60
2019-06-08T05:20:15.046Z,58.00
2019-06-08T05:23:19.600Z,57.90
2019-06-08T05:26:25.866Z,58.00
2019-06-08T05:29:30.413Z,58.70
2019-06-08T05:32:35.051Z,59.50
2019-06-08T05:35:39.593Z,58.40
2019-06-08T05:38:45.607Z,57.40
2019-06-08T05:41:50.449Z,56.60
2019-06-08T05:44:55.051Z,56.40
2019-06-08T05:47:59.635Z,56.90
2019-06-08T05:51:04.611Z,57.10
2019-06-08T05:54:09.227Z,57.00
2019-06-08T05:57:14.423Z,55.90
2019-06-08T06:00:19.088Z,56.20
2019-06-08T06:03:23.748Z,56.10
2019-06-08T06:06:28.267Z,56.20
2019-06-08T06:09:33.143Z,56.30
2019-06-08T06:12:37.731Z,56.70
2019-06-08T06:15:42.998Z,56.40
2019-06-08T06:18:47.599Z,57.30
2019-06-08T06:21:52.169Z,57.60
2019-06-08T06:24:56.764Z,56.40
2019-06-08T06:28:01.474Z,56.90
2019-06-08T06:31:05.998Z,56.80
2019-06-08T06:34:10.838Z,56.20
2019-06-08T06:37:15.424Z,56.50
2019-06-08T06:40:20.212Z,56.60
2019-06-08T06:43:24.724Z,56.70
2019-06-08T06:46:29.658Z,55.80
2019-06-08T06:49:34.231Z,55.90
2019-06-08T06:52:38.880Z,56.50
2019-06-08T06:55:44.830Z,56.10
2019-06-08T06:58:51.324Z,55.60
2019-06-08T07:01:57.627Z,56.00
2019-06-08T07:05:02.542Z,56.90
2019-06-08T07:08:07.390Z,56.50
2019-06-08T07:11:11.854Z,56.20
2019-06-08T07:14:17.262Z,56.00
2019-06-08T07:17:22.233Z,56.00
2019-06-08T07:20:26.844Z,56.30
2019-06-08T07:23:31.781Z,54.80
2019-06-08T07:26:36.446Z,55.30
2019-06-08T07:29:41.074Z,55.80
2019-06-08T07:32:47.572Z,56.10
2019-06-08T07:35:53.446Z,56.10
2019-06-08T07:39:01.572Z,56.40
2019-06-08T07:42:06.237Z,55.80
2019-06-08T07:45:11.216Z,56.10
2019-06-08T07:48:19.077Z,56.00
2019-06-08T07:51:24.235Z,56.40
2019-06-08T07:54:28.813Z,56.70
2019-06-08T07:57:33.782Z,56.40
2019-06-08T08:00:38.911Z,56.10
2019-06-08T08:03:43.934Z,56.70
2019-06-08T08:06:48.505Z,57.00
2019-06-08T08:09:54.817Z,56.80
2019-06-08T08:12:59.974Z,57.50
2019-06-08T08:16:05.037Z,57.90
2019-06-08T08:19:09.876Z,57.40
2019-06-08T08:22:25.046Z,57.60
2019-06-08T08:25:21.323Z,57.80
2019-06-08T08:28:27.948Z,57.10
2019-06-08T08:31:33.674Z,56.10
2019-06-08T08:34:38.370Z,56.30
2019-06-08T08:37:42.951Z,56.10
2019-06-08T08:40:49.744Z,55.40
2019-06-08T08:43:58.229Z,55.40
2019-06-08T08:47:02.887Z,54.20
2019-06-08T08:50:10.936Z,54.20
2019-06-08T08:53:17.892Z,54.90
2019-06-08T08:56:21.858Z,54.60
2019-06-08T08:59:28.057Z,55.40
2019-06-08T09:02:33.043Z,55.40
2019-06-08T09:05:38.185Z,55.40
2019-06-08T09:08:43.869Z,55.20
2019-06-08T09:11:48.733Z,55.10
2019-06-08T09:14:54.852Z,54.90
2019-06-08T09:18:02.539Z,55.10
2019-06-08T09:21:08.364Z,55.70
2019-06-08T09:24:12.633Z,55.10
2019-06-08T09:27:24.140Z,57.60
2019-06-08T09:30:29.086Z,59.70
2019-06-08T09:34:03.936Z,57.30
2019-06-08T09:37:02.945Z,57.90
2019-06-08T09:40:07.009Z,58.10
2019-06-08T09:43:13.174Z,56.20
2019-06-08T09:46:18.018Z,56.20
2019-06-08T09:49:22.560Z,54.20
2019-06-08T09:52:28.166Z,52.70
2019-06-08T09:55:32.950Z,51.70
2019-06-08T09:58:39.089Z,50.50
2019-06-08T10:01:43.983Z,50.40
2019-06-08T10:04:48.532Z,50.90
2019-06-08T10:07:54.410Z,50.30
2019-06-08T10:11:01.030Z,49.40
2019-06-08T10:14:11.681Z,48.20
2019-06-08T10:17:11.656Z,48.10
2019-06-08T10:20:18.299Z,46.00
2019-06-08T10:23:42.202Z,47.40
2019-06-08T10:26:47.759Z,46.90
2019-06-08T10:29:52.468Z,47.90
2019-06-08T10:33:00.480Z,46.60
2019-06-08T10:36:05.314Z,46.40
2019-06-08T10:39:11.493Z,46.50
2019-06-08T10:42:17.824Z,47.60
2019-06-08T10:45:22.277Z,46.70
2019-06-08T10:48:27.637Z,45.60
2019-06-08T10:51:32.394Z,45.80
2019-06-08T10:54:37.820Z,45.50
2019-06-08T10:57:43.034Z,46.20
2019-06-08T11:00:48.118Z,46.50
2019-06-08T11:03:52.808Z,46.20
2019-06-08T11:07:00.217Z,45.70
2019-06-08T11:10:05.666Z,46.00
2019-06-08T11:13:14.918Z,46.40
2019-06-08T11:16:18.116Z,47.40
2019-06-08T11:19:26.300Z,47.80
2019-06-08T11:22:29.351Z,49.00
2019-06-08T11:25:34.191Z,47.00
2019-06-08T11:28:40.323Z,48.10
2019-06-08T11:31:47.962Z,49.00
2019-06-08T11:34:52.116Z,50.20
2019-06-08T11:37:58.481Z,50.80
2019-06-08T11:41:04.644Z,50.00
2019-06-08T11:44:12.452Z,49.30
2019-06-08T11:47:18.017Z,48.30
2019-06-08T11:50:41.579Z,46.70
2019-06-08T11:53:44.933Z,46.60
2019-06-08T11:56:57.424Z,46.20
2019-06-08T12:00:09.211Z,45.70
2019-06-08T12:03:08.942Z,45.30
2019-06-08T12:06:14.902Z,44.60
2019-06-08T12:09:19.452Z,46.70
2019-06-08T12:12:43.122Z,45.30
2019-06-08T12:15:48.980Z,44.40
2019-06-08T12:18:53.597Z,44.40
2019-06-08T12:21:58.162Z,43.20
2019-06-08T12:25:03.808Z,44.10
2019-06-08T12:28:08.729Z,44.20
2019-06-08T12:31:17.314Z,43.30
2019-06-08T12:34:19.484Z,43.70
2019-06-08T12:37:24.226Z,42.90
2019-06-08T12:40:28.820Z,43.50
2019-06-08T12:43:33.506Z,43.90
2019-06-08T12:46:41.303Z,43.80
2019-06-08T12:49:44.350Z,42.80
2019-06-08T12:52:48.986Z,41.20
2019-06-08T12:55:53.689Z,41.20
2019-06-08T12:59:21.499Z,41.00
2019-06-08T13:02:24.250Z,41.20
2019-06-08T13:05:29.166Z,40.30
2019-06-08T13:08:33.788Z,38.80
2019-06-08T13:11:38.423Z,38.30
2019-06-08T13:14:43.057Z,37.70
2019-06-08T13:17:47.787Z,38.40
2019-06-08T13:20:54.186Z,37.40
2019-06-08T13:23:58.699Z,36.80
2019-06-08T13:27:03.380Z,36.60
2019-06-08T13:30:09.491Z,35.70
2019-06-08T13:33:14.119Z,34.80
2019-06-08T13:36:19.759Z,34.00
2019-06-08T13:39:27.891Z,34.30
2019-06-08T13:42:32.128Z,32.90
2019-06-08T13:45:39.027Z,33.60
2019-06-08T13:49:01.946Z,34.30
2019-06-08T13:52:10.003Z,33.40
2019-06-08T13:55:34.322Z,33.70
2019-06-08T13:58:26.512Z,33.80
2019-06-08T14:01:30.460Z,35.20
2019-06-08T14:04:34.320Z,35.10
2019-06-08T14:07:39.034Z,34.80
2019-06-08T14:10:45.264Z,34.40
2019-06-08T14:13:49.887Z,33.90
2019-06-08T14:16:54.704Z,34.20
2019-06-08T14:19:59.489Z,34.90
2019-06-08T14:23:04.309Z,34.50
2019-06-08T14:26:15.002Z,35.40
2019-06-08T14:29:21.436Z,35.40
2019-06-08T14:32:25.977Z,36.10
2019-06-08T14:35:30.587Z,35.70
2019-06-08T14:38:38.690Z,35.50
2019-06-08T14:41:41.412Z,34.90
2019-06-08T14:44:47.609Z,35.50
2019-06-08T14:47:52.234Z,35.70
2019-06-08T14:50:58.394Z,36.60
2019-06-08T14:54:03.102Z,36.90
2019-06-08T14:57:08.275Z,35.70
2019-06-08T15:00:14.328Z,35.40
2019-06-08T15:03:19.778Z,35.50
2019-06-08T15:06:27.541Z,35.90
2019-06-08T15:09:30.630Z,36.20
2019-06-08T15:12:35.142Z,37.40
2019-06-08T15:15:39.740Z,37.20
2019-06-08T15:18:44.414Z,37.40
2019-06-08T15:21:48.953Z,37.30
2019-06-08T15:24:53.464Z,36.10
2019-06-08T15:28:01.222Z,36.60
2019-06-08T15:31:04.351Z,37.30
2019-06-08T15:34:10.770Z,37.50
2019-06-08T15:37:15.146Z,36.80
2019-06-08T15:40:19.849Z,37.20
2019-06-08T15:43:24.517Z,38.10
2019-06-08T15:46:30.374Z,37.90
2019-06-08T15:49:34.962Z,38.10
2019-06-08T15:52:39.558Z,37.90
2019-06-08T15:55:44.517Z,38.10
2019-06-08T15:58:49.059Z,37.90
2019-06-08T16:01:53.749Z,37.70
2019-06-08T16:04:58.356Z,37.90
2019-06-08T16:08:02.974Z,38.70
2019-06-08T16:11:07.527Z,39.10
2019-06-08T16:14:12.101Z,39.00
2019-06-08T16:17:18.119Z,38.80
2019-06-08T16:20:22.805Z,38.70
2019-06-08T16:23:27.723Z,39.00
2019-06-08T16:26:32.349Z,40.00
2019-06-08T16:29:36.928Z,39.30
2019-06-08T16:32:41.563Z,39.70
2019-06-08T16:35:46.137Z,39.90
2019-06-08T16:38:52.847Z,40.00
2019-06-08T16:41:56.903Z,40.10
2019-06-08T16:45:01.558Z,40.00
2019-06-08T16:48:06.213Z,40.10
2019-06-08T16:51:10.766Z,40.00
2019-06-08T16:54:15.302Z,39.90
2019-06-08T16:57:19.907Z,40.40
2019-06-08T17:00:36.568Z,40.10
2019-06-08T17:03:32.737Z,40.50
2019-06-08T17:06:37.485Z,40.50
2019-06-08T17:09:42.080Z,40.60
2019-06-08T17:12:46.674Z,40.60
2019-06-08T17:15:51.347Z,40.40
2019-06-08T17:18:56.357Z,40.70
2019-06-08T17:22:01.044Z,40.90
2019-06-08T17:25:08.218Z,40.90
2019-06-08T17:28:12.092Z,40.90
2019-06-08T17:31:16.699Z,40.90
2019-06-08T17:34:21.299Z,40.40
2019-06-08T17:37:25.999Z,40.60
2019-06-08T17:40:31.879Z,41.00
2019-06-08T17:43:36.661Z,41.70
2019-06-08T17:46:41.786Z,41.30
2019-06-08T17:49:47.657Z,41.30
2019-06-08T17:52:52.204Z,41.40
2019-06-08T17:55:56.717Z,41.00
2019-06-08T17:59:01.314Z,41.10
2019-06-08T18:02:10.252Z,41.30
2019-06-08T18:05:13.050Z,41.60
2019-06-08T18:08:17.687Z,41.80
2019-06-08T18:11:22.250Z,41.90
2019-06-08T18:14:27.958Z,41.90
2019-06-08T18:17:34.021Z,42.30
2019-06-08T18:20:41.683Z,42.30
2019-06-08T18:23:45.334Z,42.50
2019-06-08T18:26:49.985Z,42.40
2019-06-08T18:29:58.216Z,42.70
2019-06-08T18:33:02.918Z,42.80
2019-06-08T18:36:07.763Z,43.00
2019-06-08T18:39:12.301Z,42.90
2019-06-08T18:42:17.906Z,42.90
2019-06-08T18:45:22.566Z,43.10
2019-06-08T18:48:28.208Z,43.40
2019-06-08T18:51:32.891Z,43.40
2019-06-08T18:54:38.474Z,43.50
2019-06-08T18:57:44.145Z,43.60
2019-06-08T19:00:50.006Z,43.80
2019-06-08T19:03:54.850Z,43.90
2019-06-08T19:07:02.478Z,44.00
2019-06-08T19:10:08.492Z,44.10
2019-06-08T19:13:13.057Z,44.20
2019-06-08T19:16:18.166Z,44.40
2019-06-08T19:19:22.892Z,44.60
2019-06-08T19:22:30.014Z,44.60
2019-06-08T19:25:33.755Z,44.70
2019-06-08T19:28:42.848Z,44.80
2019-06-08T19:31:45.794Z,45.10
2019-06-08T19:34:54.013Z,45.10
2019-06-08T19:37:58.298Z,45.20
2019-06-08T19:41:03.092Z,45.30
2019-06-08T19:44:07.768Z,45.50
2019-06-08T19:47:12.349Z,45.50
2019-06-08T19:50:17.381Z,45.70
2019-06-08T19:53:21.913Z,45.90
2019-06-08T19:56:28.230Z,46.00
2019-06-08T19:59:32.899Z,46.20
2019-06-08T20:02:37.678Z,46.30
2019-06-08T20:05:42.917Z,46.40
2019-06-08T20:08:49.948Z,46.50
2019-06-08T20:11:56.946Z,46.70
2019-06-08T20:15:00.097Z,46.70
2019-06-08T20:18:04.808Z,46.90
2019-06-08T20:21:10.331Z,47.10
2019-06-08T20:24:15.079Z,47.20
2019-06-08T20:27:19.666Z,47.20
2019-06-08T20:30:24.315Z,47.40
2019-06-08T20:33:28.965Z,47.50
2019-06-08T20:36:33.547Z,47.60
2019-06-08T20:39:38.352Z,47.80
2019-06-08T20:42:44.156Z,48.10
2019-06-08T20:45:49.200Z,48.20
2019-06-08T20:48:55.000Z,48.20
2019-06-08T20:52:00.361Z,48.20
2019-06-08T20:55:07.603Z,48.30
2019-06-08T20:58:11.979Z,48.50
2019-06-08T21:01:18.049Z,48.80
2019-06-08T21:04:22.655Z,48.90
2019-06-08T21:07:28.102Z,48.90
2019-06-08T21:10:33.000Z,49.00
2019-06-08T21:13:37.630Z,49.20
2019-06-08T21:16:42.248Z,49.30
2019-06-08T21:19:46.881Z,49.50
2019-06-08T21:22:53.887Z,49.70
2019-06-08T21:26:00.141Z,49.70
2019-06-08T21:29:03.926Z,49.80
2019-06-08T21:32:08.528Z,49.90
2019-06-08T21:35:13.438Z,50.00
2019-06-08T21:38:24.003Z,50.10
2019-06-08T21:41:27.875Z,50.10
2019-06-08T21:44:32.709Z,50.00
2019-06-08T21:47:37.863Z,50.10
2019-06-08T21:50:42.544Z,50.10
2019-06-08T21:53:49.475Z,50.20
2019-06-08T21:56:54.646Z,50.30
2019-06-08T22:00:13.925Z,50.40
2019-06-08T22:03:08.058Z,50.60
2019-06-08T22:06:12.468Z,50.70
2019-06-08T22:09:17.643Z,50.70
2019-06-08T22:12:22.274Z,50.90
2019-06-08T22:15:27.112Z,51.00
2019-06-08T22:18:31.922Z,51.00
2019-06-08T22:21:37.693Z,51.00
2019-06-08T22:24:42.337Z,51.10
2019-06-08T22:27:46.902Z,51.10
2019-06-08T22:30:52.612Z,51.10
2019-06-08T22:34:00.325Z,51.20
2019-06-08T22:37:04.028Z,51.00
2019-06-08T22:40:09.003Z,51.10
2019-06-08T22:43:13.568Z,51.30
2019-06-08T22:46:18.112Z,51.40
2019-06-08T22:49:22.794Z,51.40
2019-06-08T22:52:27.797Z,51.60
2019-06-08T22:55:32.372Z,51.30
2019-06-08T22:58:37.273Z,51.80
2019-06-08T23:01:42.149Z,51.90
2019-06-08T23:04:47.523Z,51.80
2019-06-08T23:07:52.203Z,51.90
2019-06-08T23:10:58.918Z,52.00
2019-06-08T23:14:06.511Z,52.00
2019-06-08T23:17:09.680Z,51.90
2019-06-08T23:20:14.229Z,51.80
2019-06-08T23:23:18.789Z,51.80
2019-06-08T23:26:23.440Z,51.90
2019-06-08T23:29:28.023Z,52.00
2019-06-08T23:32:32.577Z,52.20
2019-06-08T23:36:02.964Z,52.40
2019-06-08T23:38:43.396Z,52.50
2019-06-08T23:41:48.350Z,52.70
2019-06-08T23:44:53.035Z,52.90
2019-06-08T23:48:00.758Z,52.90
2019-06-08T23:51:04.356Z,52.90
2019-06-08T23:54:12.008Z,53.00
2019-06-08T23:57:15.134Z,53.00
